• Join FlightAware (Why Join?)
  • Login
  • US Flag 
02:03AM EDT


 

Airport Tracker/Info


-or-


 

Live Flight TrackerFlight Track Log ✈ ASA640 ✈ 26-Apr-2013 ✈ KBLI - KLAS

Flight Track Log - Related Links

Times and Time Zones

All times are in EDT time to prevent confusion due to time zone crossing. See the ASA640 flight status page for this flight to view local times or setup timezone preferences in your user account.

Time Position Orientation Groundspeed Altitude Reporting Facility
EDT Latitude Longitude Course Direction KTS MPH feet Rate Location/Type
08:20PM 48.7667 -122.5333 155° Southeast 150 173 1,100  Level Vancouver Center
08:21PM 48.7167 -122.5667 204° Southwest 170 196 3,000 2,340 Climbing Vancouver Center
08:22PM 48.6500 -122.5833 189° South 230 265 5,800 2,940 Climbing Vancouver Center
08:23PM 48.5983 -122.6000 192° South 254 292 8,900 1,560 Climbing Seattle Center
08:24PM 48.1529 -122.0748 154° Southeast  Level Estimated
08:24PM 48.5281 -122.6258 194° South 262 302 9,000  Level Seattle Center
08:25PM 48.0463 -121.9990 155° Southeast  Level Estimated
08:25PM 48.4572 -122.6506 193° South 263 303 10,200  Level Seattle Center
08:26PM 48.3767 -122.6792 193° South 314 361 12,100 2,340 Climbing Seattle Center
08:27PM 48.2881 -122.7092 193° South 332 382 15,000 2,760 Climbing Seattle Center
08:28PM 48.1906 -122.6967 175° South 372 428 17,800 2,280 Climbing Seattle Center
08:29PM 48.0906 -122.6436 160° South 383 441 19,700 2,220 Climbing Seattle Center
08:30PM 47.9639 -122.5783 161° South 400 460 22,400 2,220 Climbing Seattle Center
08:31PM 47.8528 -122.5222 161° South 420 483 24,300 1,680 Climbing Seattle Center
08:32PM 47.7378 -122.4636 161° South 437 503 25,900 1,440 Climbing Seattle Center
08:33PM 47.6286 -122.4075 161° South 449 517 27,300 1,440 Climbing Seattle Center
08:34PM 47.4836 -122.3344 161° South 468 539 28,900 1,380 Climbing Seattle Center
08:35PM 47.3581 -122.2772 163° South 473 544 30,200 1,560 Climbing Seattle Center
08:36PM 47.2322 -122.2286 165° South 474 545 32,100 1,740 Climbing Seattle Center
08:37PM 47.1086 -122.1800 165° South 468 539 33,800 1,380 Climbing Seattle Center
08:38PM 46.9864 -122.1328 165° South 460 529 35,000 540 Climbing Seattle Center
08:39PM 46.8633 -122.0844 165° South 463 533 35,000  Level Seattle Center
08:40PM 46.7406 -122.0369 165° South 462 532 35,000  Level Seattle Center
08:41PM 46.5933 -121.9797 165° South 463 533 35,000  Level Seattle Center
08:42PM 46.4706 -121.9314 165° South 462 532 35,000  Level Seattle Center
08:43PM 46.3475 -121.8833 165° South 463 533 35,000  Level Seattle Center
08:44PM 46.2128 -121.8325 165° South 463 533 35,000  Level Seattle Center
08:45PM 46.0900 -121.7850 165° South 459 528 35,000  Level Seattle Center
08:46PM 45.9667 -121.7383 165° South 458 527 35,000  Level Seattle Center
08:47PM 45.8431 -121.6925 166° South 460 529 35,000  Level Seattle Center
08:48PM 45.7200 -121.6469 166° South 457 526 35,000  Level Seattle Center
08:49PM 45.5986 -121.6014 165° South 450 518 35,000  Level Seattle Center
08:50PM 45.4739 -121.5553 165° South 460 529 35,000  Level Seattle Center
08:51PM 45.3450 -121.5067 165° South 463 533 35,000  Level Seattle Center
08:52PM 45.2183 -121.4606 166° South 467 537 35,000  Level Seattle Center
08:53PM 45.0922 -121.4139 165° South 469 540 35,000  Level Seattle Center
08:54PM 44.9667 -121.3672 165° South 467 537 35,000  Level Seattle Center
08:55PM 44.8406 -121.3214 166° South 467 537 35,000  Level Seattle Center
08:56PM 44.7139 -121.2767 166° South 469 540 35,000  Level Seattle Center
08:57PM 44.5875 -121.2308 166° South 469 540 35,000  Level Seattle Center
08:58PM 44.4608 -121.1856 166° South 469 540 35,000  Level Seattle Center
08:59PM 44.3339 -121.1411 166° South 470 541 35,000  Level Seattle Center
09:00PM 44.1861 -121.0864 165° South 471 542 35,000  Level Seattle Center
09:02PM 44.0658 -121.0472 167° South 473 544 35,000  Level Seattle Center
09:03PM 43.9406 -121.0036 166° South 466 536 35,000  Level Seattle Center
09:04PM 43.8150 -120.9603 166° South 464 534 35,000  Level Seattle Center
09:05PM 43.6903 -120.9167 166° South 462 532 35,000  Level Seattle Center
09:06PM 43.5472 -120.8683 166° South 465 535 35,000  Level Seattle Center
09:07PM 43.4231 -120.8239 165° South 462 532 35,000  Level Seattle Center
09:08PM 43.2997 -120.7822 166° South 457 526 35,000  Level Seattle Center
09:09PM 43.1778 -120.7400 166° South 452 520 35,000  Level Seattle Center
09:10PM 43.0536 -120.6989 166° South 458 527 35,000  Level Seattle Center
09:11PM 42.9297 -120.6567 166° South 459 528 35,000  Level Seattle Center
09:12PM 42.8061 -120.6136 166° South 458 527 35,000  Level Seattle Center
09:13PM 42.6825 -120.5731 166° South 456 525 35,000  Level Seattle Center
09:14PM 42.5586 -120.5308 166° South 457 526 35,000  Level Seattle Center
09:15PM 42.4361 -120.4836 164° South 458 527 35,000  Level Seattle Center
09:16PM 42.3161 -120.4267 161° South 457 526 35,000  Level Seattle Center
09:17PM 42.1947 -120.3722 162° South 459 528 35,000  Level Seattle Center
09:18PM 42.0739 -120.3153 161° South 459 528 35,000  Level Seattle Center
09:19PM 41.9533 -120.2594 161° South 459 528 35,000  Level Seattle Center
09:20PM 41.8300 -120.2044 162° South 463 533 35,000  Level Seattle Center
09:21PM 41.7097 -120.1497 161° South 460 529 35,000  Level Seattle Center
09:22PM 41.5675 -120.0822 160° South 453 521 35,000  Level Seattle Center
09:23PM 41.4461 -120.0281 162° South 457 526 35,000  Level Seattle Center
09:24PM 41.3247 -119.9739 161° South 460 529 35,000  Level Seattle Center
09:25PM 41.2028 -119.9197 162° South 460 529 35,000  Level Seattle Center
09:26PM 41.0817 -119.8650 161° South 460 529 35,000  Level Seattle Center
09:27PM 40.9611 -119.8106 161° South 457 526 35,000  Level Seattle Center
09:28PM 40.8403 -119.7567 161° South 458 527 35,000  Level Seattle Center
09:28PM 40.7683 -119.7244 161° South 458 527 35,000  Level Oakland Center
09:29PM 40.6464 -119.6717 162° South 461 531 35,000  Level Oakland Center
09:31PM 40.5328 -119.5825 149° Southeast 460 529 35,000  Level Oakland Center
09:32PM 40.4247 -119.4944 148° Southeast 458 527 35,000  Level Oakland Center
09:33PM 40.3172 -119.4092 149° Southeast 453 521 35,000  Level Oakland Center
09:34PM 40.2086 -119.3225 149° Southeast 457 526 35,000  Level Oakland Center
09:35PM 40.0997 -119.2361 149° Southeast 458 527 35,000  Level Oakland Center
09:36PM 39.9908 -119.1486 148° Southeast 460 529 35,000  Level Oakland Center
09:37PM 39.8825 -119.0639 149° Southeast 456 525 35,000  Level Oakland Center
09:38PM 39.7503 -118.9594 149° Southeast 461 531 35,000  Level Oakland Center
09:39PM 39.6406 -118.8742 149° Southeast 460 529 35,000  Level Oakland Center
09:40PM 39.5311 -118.7883 149° Southeast 459 528 35,000  Level Oakland Center
09:41PM 39.4328 -118.7114 149° Southeast 460 529 35,000  Level Oakland Center
09:42PM 39.3225 -118.6256 149° Southeast 462 532 35,000  Level Oakland Center
09:43PM 39.1917 -118.5258 149° Southeast 456 525 35,000  Level Oakland Center
09:44PM 39.0836 -118.4411 149° Southeast 455 524 35,000  Level Oakland Center
09:45PM 38.9739 -118.3578 149° Southeast 456 525 35,000 -360 Level Oakland Center
09:46PM 38.8650 -118.2744 149° Southeast 456 525 34,300 -840 Descending Oakland Center
09:47PM 38.7581 -118.1939 150° Southeast 449 517 33,300 -660 Descending Oakland Center
09:48PM 38.6522 -118.1133 149° Southeast 444 511 33,000 -180 Descending Oakland Center
09:49PM 38.5456 -118.0322 149° Southeast 447 514 33,000  Level Oakland Center
09:50PM 38.4375 -117.9503 149° Southeast 451 519 33,000  Level Oakland Center
09:51PM 38.3303 -117.8694 149° Southeast 449 517 33,000  Level Oakland Center
09:52PM 38.2014 -117.7731 150° Southeast 449 517 33,000  Level Oakland Center
09:53PM 38.0947 -117.6931 149° Southeast 448 516 33,000  Level Oakland Center
09:54PM 37.9878 -117.6139 150° Southeast 448 516 33,000  Level Oakland Center
09:55PM 37.8808 -117.5347 150° Southeast 448 516 33,000  Level Oakland Center
09:56PM 37.7758 -117.4561 149° Southeast 443 510 33,000  Level Oakland Center
09:57PM 37.6692 -117.3775 150° Southeast 445 512 33,000  Level Oakland Center
09:58PM 37.5622 -117.3003 150° Southeast 445 512 33,000  Level Oakland Center
09:59PM 37.4544 -117.2211 150° Southeast 448 516 33,000  Level Oakland Center
10:00PM 37.3250 -117.1269 150° Southeast 449 517 33,000 -180 Level Oakland Center
10:01PM 37.2175 -117.0483 150° Southeast 448 516 32,700 -420 Descending Oakland Center
10:01PM 37.1964 -117.0342 152° Southeast 446 513 32,500 -1,140 Descending Los Angeles Center
10:02PM 37.1139 -116.9744 150° Southeast 431 496 31,600 -1,080 Descending Oakland Center
10:03PM 37.0139 -116.9017 150° Southeast 417 480 30,600 -1,020 Descending Oakland Center
10:04PM 36.9131 -116.8292 150° Southeast 417 480 29,600 -960 Descending Oakland Center
10:04PM 36.8925 -116.8136 149° Southeast 419 482 29,400 -480 Descending Los Angeles Center
10:06PM 36.7911 -116.7347 148° Southeast 425 489 29,000 -240 Descending Los Angeles Center
10:07PM 36.6997 -116.6047 131° Southeast 415 478 29,000 -1,620 Level Los Angeles Center
10:08PM 36.6222 -116.4928 131° Southeast 425 489 25,700 -2,280 Descending Los Angeles Center
10:09PM 36.5442 -116.3814 131° Southeast 426 490 24,400 -1,680 Descending Los Angeles Center
10:10PM 36.4686 -116.2739 131° Southeast 408 470 22,300 -2,040 Descending Los Angeles Center
10:11PM 36.3947 -116.1683 131° Southeast 399 459 20,300 -2,040 Descending Los Angeles Center
10:11PM 36.3536 -116.1189 136° Southeast 397 457 19,300 -1,560 Descending Los Angeles Center
10:12PM 36.3342 -116.0861 126° Southeast 385 443 18,700 -1,800 Descending Los Angeles Center
10:12PM 36.2839 -116.0214 134° Southeast 374 430 17,500 -2,280 Descending Los Angeles Center
10:13PM 36.2503 -115.9692 129° Southeast 372 428 16,400 -1,320 Descending Los Angeles Center
10:13PM 36.2189 -115.9278 133° Southeast 367 422 16,200 -420 Descending Los Angeles Center
10:14PM 36.1886 -115.8697 123° Southeast 336 387 16,000 -720 Descending Los Angeles Center
10:14PM 36.1778 -115.8347 111° Southeast 325 374 15,500 -1,200 Descending Los Angeles Center
10:15PM 36.1583 -115.7708 111° Southeast 315 362 14,600 -1,620 Descending Los Angeles Center
10:15PM 36.1389 -115.7117 112° Southeast 307 353 13,600 -1,860 Descending Los Angeles Center
10:16PM 36.1200 -115.6511 111° Southeast 305 351 12,700 -960 Descending Los Angeles Center
10:17PM 36.0875 -115.5506 112° Southeast 297 342 12,000 -840 Descending Los Angeles Center
10:18PM 36.0522 -115.4472 113° Southeast 305 351 11,000 -540 Descending Los Angeles Center
10:19PM 36.0286 -115.3622 109° East 295 339 11,000 -600 Level Los Angeles Center
10:20PM 36.0236 -115.2692 94° East 273 314 9,900 -1,080 Descending Los Angeles Center
10:21PM 36.0167 -115.1772 95° East 271 312 8,800 -960 Descending Los Angeles Center
10:22PM 36.0108 -115.0911 95° East 259 298 8,000 -780 Descending Los Angeles Center
10:23PM 36.0061 -115.0036 94° East 223 257 7,300 -900 Descending Los Angeles Center
10:24PM 36.0172 -114.9483 76° East 199 229 6,200 -1,260 Descending Los Angeles Center
10:25PM 36.0686 -114.9553 354° North 179 206 4,800 -1,140 Descending Los Angeles Center
10:25PM 36.0689 -114.9514 85° East 190 219 4,800 -960 Level Los Angeles Center
10:26PM 36.0733 -115.0256 274° West 185 213 3,600 -1,080 Descending Los Angeles Center
10:27PM 36.0739 -115.0786 271° West 162 186 2,800 -840 Descending Los Angeles Center
10:29PM 36.0742 -115.1369 270° West 168 193 2,000 -720 Descending Los Angeles Center